Time;durP1;ratioP1;P1;durP2;ratioP2;P2;SDS_P1;SDS_P2;PMS_P1;PMS_P2;Temp;Humidity;BMP_temperature;BMP_pressure;BME280_temperature;BME280_humidity;BME280_pressure;Samples;Min_cycle;Max_cycle;Signal;HPM_P1;HPM_P2
2022/03/16 00:01:12;;;;;;;25.02;15.25;;;;;;;6.00;86.28;102452.66;5097318;28;20028;-67
2022/03/16 00:03:38;;;;;;;25.80;14.88;;;;;;;6.10;86.02;102451.03;5097493;28;20024;-69
2022/03/16 00:06:03;;;;;;;26.35;15.98;;;;;;;6.07;85.89;102457.22;5096390;28;20035;-70
2022/03/16 00:08:29;;;;;;;23.08;14.57;;;;;;;6.06;85.56;102462.44;5096144;28;20409;-68
2022/03/16 00:10:56;;;;;;;22.88;14.82;;;;;;;6.05;85.18;102453.13;5096514;28;20020;-70
2022/03/16 00:13:21;;;;;;;25.15;14.65;;;;;;;6.06;84.90;102463.25;5097117;28;20031;-69
2022/03/16 00:15:46;;;;;;;22.58;14.20;;;;;;;6.07;85.07;102459.78;5097154;28;20024;-68
2022/03/16 00:18:13;;;;;;;21.80;14.90;;;;;;;5.86;85.59;102459.59;5097014;28;20024;-69
2022/03/16 00:20:38;;;;;;;28.00;15.30;;;;;;;5.92;86.18;102465.22;5078756;28;20445;-69
2022/03/16 00:23:05;;;;;;;24.30;15.05;;;;;;;5.92;86.20;102465.22;5095615;28;20119;-68
2022/03/16 00:25:30;;;;;;;38.17;15.75;;;;;;;5.84;86.68;102464.03;5096545;28;20028;-70
2022/03/16 00:27:55;;;;;;;23.40;14.50;;;;;;;5.85;85.72;102459.72;5096101;28;20031;-68
2022/03/16 00:30:21;;;;;;;26.67;15.80;;;;;;;5.83;86.21;102464.16;5096023;28;20020;-69
2022/03/16 00:32:46;;;;;;;23.25;14.65;;;;;;;5.80;85.43;102461.81;5077728;28;20123;-69
2022/03/16 00:35:11;;;;;;;24.80;15.15;;;;;;;5.69;85.59;102448.97;5095870;28;20020;-68
2022/03/16 00:37:37;;;;;;;24.50;15.27;;;;;;;5.71;86.24;102468.44;5078473;28;20058;-68
2022/03/16 00:40:02;;;;;;;25.27;15.73;;;;;;;5.64;87.10;102464.72;5096628;28;20020;-68
2022/03/16 00:42:28;;;;;;;24.67;16.13;;;;;;;5.63;86.61;102468.19;5078285;28;20016;-68
2022/03/16 00:44:54;;;;;;;26.88;16.17;;;;;;;5.64;86.67;102455.25;5096012;28;20020;-68
2022/03/16 00:47:19;;;;;;;24.08;16.23;;;;;;;5.62;86.81;102458.88;5096053;28;20107;-69
2022/03/16 00:49:45;;;;;;;26.23;16.23;;;;;;;5.64;87.04;102464.72;5096128;28;20132;-68
2022/03/16 00:52:10;;;;;;;22.17;15.30;;;;;;;5.53;86.85;102462.13;5078070;28;20111;-68
2022/03/16 00:54:35;;;;;;;22.73;16.15;;;;;;;5.42;87.33;102456.00;5094749;28;20504;-68
2022/03/16 00:57:01;;;;;;;28.10;16.55;;;;;;;5.36;87.98;102459.03;5095939;28;20378;-68
2022/03/16 00:59:26;;;;;;;26.55;17.63;;;;;;;5.42;88.72;102457.75;5093922;28;20047;-68
2022/03/16 01:01:52;;;;;;;24.15;15.90;;;;;;;5.50;88.16;102452.91;5094631;28;20031;-69
2022/03/16 01:04:17;;;;;;;27.35;16.10;;;;;;;5.42;87.06;102448.31;5077626;28;20039;-69
2022/03/16 01:06:42;;;;;;;27.13;16.83;;;;;;;5.47;87.21;102454.84;5076864;28;20120;-69
2022/03/16 01:09:07;;;;;;;30.50;17.40;;;;;;;5.51;87.74;102462.22;5094924;28;20031;-69
2022/03/16 01:11:33;;;;;;;25.45;18.08;;;;;;;5.51;87.42;102463.97;5095782;28;20055;-69
2022/03/16 01:13:59;;;;;;;23.35;15.70;;;;;;;5.31;87.00;102460.28;5095124;28;20509;-69
2022/03/16 01:16:24;;;;;;;27.33;16.50;;;;;;;5.20;87.05;102453.34;5095609;28;20103;-69
2022/03/16 01:18:49;;;;;;;28.65;16.70;;;;;;;5.11;87.57;102465.09;5095805;28;20486;-69
2022/03/16 01:21:15;;;;;;;28.90;16.55;;;;;;;5.27;87.76;102454.56;5094973;28;20027;-69
2022/03/16 01:23:40;;;;;;;29.10;17.75;;;;;;;5.36;87.34;102463.34;5077538;28;20020;-68
2022/03/16 01:26:06;;;;;;;26.98;17.33;;;;;;;5.26;86.90;102450.34;5094835;28;20016;-69
2022/03/16 01:28:32;;;;;;;28.10;16.67;;;;;;;5.18;86.84;102460.38;5093911;28;20031;-69
2022/03/16 01:31:01;;;;;;;25.33;16.63;;;;;;;5.12;86.75;102455.66;5095288;28;20024;-68
2022/03/16 01:33:28;;;;;;;25.00;15.65;;;;;;;4.99;86.42;102448.03;5095283;28;20024;-68
2022/03/16 01:35:53;;;;;;;27.20;16.42;;;;;;;4.95;86.55;102451.75;5095251;28;20020;-68
2022/03/16 01:38:19;;;;;;;26.50;16.33;;;;;;;5.05;86.53;102450.16;5095342;28;20034;-68
2022/03/16 01:40:45;;;;;;;26.90;16.90;;;;;;;4.98;86.98;102451.53;5095072;28;20070;-71
2022/03/16 01:43:10;;;;;;;30.17;18.88;;;;;;;5.04;88.00;102448.53;5095001;28;20470;-68
2022/03/16 01:45:35;;;;;;;26.90;17.63;;;;;;;5.04;87.64;102445.16;5094915;28;20034;-68
2022/03/16 01:48:01;;;;;;;30.42;16.92;;;;;;;4.96;87.98;102448.25;5094715;28;20394;-69
2022/03/16 01:50:26;;;;;;;29.58;18.08;;;;;;;4.89;87.33;102454.72;5076894;28;20488;-68
2022/03/16 01:52:52;;;;;;;31.35;18.17;;;;;;;4.91;88.29;102450.31;5094930;28;20068;-68
2022/03/16 01:55:18;;;;;;;29.70;18.60;;;;;;;4.88;87.96;102458.22;5095037;28;20041;-69
2022/03/16 01:57:47;;;;;;;29.80;18.25;;;;;;;4.93;88.31;102464.66;5094671;28;20479;-69
2022/03/16 02:00:13;;;;;;;31.83;18.38;;;;;;;5.00;87.89;102459.09;5094496;28;20462;-70
2022/03/16 02:02:39;;;;;;;35.80;19.17;;;;;;;5.02;87.97;102458.06;5093429;28;20162;-69
2022/03/16 02:05:05;;;;;;;31.52;18.65;;;;;;;4.89;88.22;102457.28;5094702;28;20115;-68
2022/03/16 02:07:30;;;;;;;33.85;18.85;;;;;;;4.88;87.99;102460.78;5095002;28;20493;-68
2022/03/16 02:09:59;;;;;;;30.23;19.52;;;;;;;4.84;88.67;102459.38;5095174;28;20468;-68
2022/03/16 02:12:24;;;;;;;29.23;18.30;;;;;;;4.79;88.61;102461.44;5093983;28;20404;-69
2022/03/16 02:14:50;;;;;;;32.03;18.48;;;;;;;4.93;89.16;102461.28;5095059;28;20154;-69
2022/03/16 02:17:15;;;;;;;29.25;19.08;;;;;;;4.94;88.25;102461.16;5076827;28;20060;-69
2022/03/16 02:19:41;;;;;;;33.38;17.50;;;;;;;4.68;87.97;102450.19;5094736;28;20028;-69
2022/03/16 02:22:09;;;;;;;35.40;18.35;;;;;;;4.78;88.75;102455.50;5076201;28;20107;-69
2022/03/16 02:24:34;;;;;;;26.60;16.92;;;;;;;4.52;89.37;102447.91;5094516;28;20038;-69
2022/03/16 02:27:00;;;;;;;31.67;18.30;;;;;;;4.70;89.06;102440.66;5094512;28;20378;-69
2022/03/16 02:29:25;;;;;;;27.50;17.55;;;;;;;4.63;89.63;102446.31;5076421;28;20024;-67
2022/03/16 02:31:50;;;;;;;26.73;17.48;;;;;;;4.58;89.92;102448.41;5094682;28;20089;-69
2022/03/16 02:34:16;;;;;;;25.73;17.00;;;;;;;4.72;90.32;102450.81;5094506;28;20051;-68
2022/03/16 02:36:42;;;;;;;28.05;16.70;;;;;;;4.62;89.12;102450.63;5076364;28;20066;-69
2022/03/16 02:39:07;;;;;;;27.85;16.30;;;;;;;4.45;90.20;102449.22;5094389;28;20024;-69
2022/03/16 02:41:32;;;;;;;28.63;16.83;;;;;;;4.41;91.00;102445.25;5076202;28;20060;-68
2022/03/16 02:43:58;;;;;;;23.90;16.02;;;;;;;4.43;90.28;102440.00;5094515;28;20020;-68
2022/03/16 02:46:23;;;;;;;26.75;17.13;;;;;;;4.55;90.20;102430.69;5075948;28;20028;-67
2022/03/16 02:48:49;;;;;;;27.30;16.08;;;;;;;4.63;89.87;102433.50;5075942;28;20097;-68
2022/03/16 02:51:14;;;;;;;25.58;16.05;;;;;;;4.56;89.88;102422.88;5094469;28;20050;-68
2022/03/16 02:53:40;;;;;;;25.48;15.73;;;;;;;4.26;90.65;102424.09;5076181;28;20031;-68
2022/03/16 02:56:05;;;;;;;23.95;16.23;;;;;;;4.21;91.80;102413.34;5092693;28;20026;-68
2022/03/16 02:58:31;;;;;;;23.90;15.55;;;;;;;4.15;92.59;102412.97;5075686;28;20032;-68
2022/03/16 03:00:56;;;;;;;24.50;16.27;;;;;;;4.15;93.47;102411.22;5093938;28;20024;-68
2022/03/16 03:03:22;;;;;;;27.08;16.77;;;;;;;4.32;92.71;102410.06;5076058;28;20032;-68
2022/03/16 03:05:47;;;;;;;27.67;16.17;;;;;;;4.20;92.67;102404.06;5075857;28;20034;-68
2022/03/16 03:08:13;;;;;;;28.45;16.67;;;;;;;4.41;93.44;102413.72;5093982;28;20107;-69
2022/03/16 03:10:38;;;;;;;28.42;15.70;;;;;;;4.44;92.16;102410.94;5075434;28;20027;-68
2022/03/16 03:13:04;;;;;;;25.60;16.83;;;;;;;4.51;91.20;102415.53;5075848;28;20043;-68
2022/03/16 03:15:29;;;;;;;26.85;16.65;;;;;;;4.30;91.70;102420.38;5075532;28;20058;-69
2022/03/16 03:17:55;;;;;;;26.58;16.85;;;;;;;4.28;92.38;102412.00;5094036;28;20028;-67
2022/03/16 03:20:20;;;;;;;26.95;16.85;;;;;;;4.28;91.96;102411.19;5093762;28;20375;-69
2022/03/16 03:22:46;;;;;;;30.05;16.52;;;;;;;4.34;91.88;102417.63;5093575;28;20028;-68
2022/03/16 03:25:14;;;;;;;30.15;17.38;;;;;;;4.22;91.81;102419.28;5093689;28;20035;-68
2022/03/16 03:27:39;;;;;;;27.70;16.27;;;;;;;4.22;92.32;102414.97;5093798;28;20028;-68
2022/03/16 03:30:06;;;;;;;35.22;17.73;;;;;;;4.29;91.83;102420.50;5093648;28;20031;-69
2022/03/16 03:32:31;;;;;;;28.35;18.17;;;;;;;4.33;91.74;102413.44;5075513;28;20115;-69
2022/03/16 03:34:57;;;;;;;35.05;17.52;;;;;;;4.17;91.47;102399.16;5075644;28;20117;-69
2022/03/16 03:37:25;;;;;;;29.00;18.05;;;;;;;4.29;90.96;102423.06;5093720;28;20020;-68
2022/03/16 03:39:50;;;;;;;34.50;18.60;;;;;;;4.23;91.49;102419.19;5093667;28;20048;-68
2022/03/16 03:42:15;;;;;;;32.92;18.75;;;;;;;4.24;92.04;102417.44;5092298;28;20105;-68
2022/03/16 03:44:41;;;;;;;32.72;19.27;;;;;;;4.19;91.98;102422.06;5075692;28;20028;-69
2022/03/16 03:47:08;;;;;;;34.13;19.85;;;;;;;4.10;91.72;102418.38;5093466;28;20020;-68
2022/03/16 03:49:35;;;;;;;33.50;19.95;;;;;;;4.03;91.78;102418.00;5093279;28;20056;-68
2022/03/16 03:52:01;;;;;;;43.25;20.98;;;;;;;4.04;91.76;102418.81;5093463;28;20024;-68
2022/03/16 03:54:27;;;;;;;33.50;20.00;;;;;;;4.11;92.38;102416.63;5093348;28;20379;-69
2022/03/16 03:56:52;;;;;;;32.20;20.55;;;;;;;4.03;92.32;102412.88;5093543;28;20020;-68
2022/03/16 03:59:17;;;;;;;34.83;20.15;;;;;;;4.11;91.50;102402.09;5075095;28;20526;-69
2022/03/16 04:01:43;;;;;;;33.53;20.63;;;;;;;4.18;91.05;102407.63;5093256;28;20039;-69
2022/03/16 04:04:08;;;;;;;32.13;19.83;;;;;;;4.12;91.35;102403.75;5093419;28;20208;-69
2022/03/16 04:06:33;;;;;;;33.08;20.52;;;;;;;4.09;91.76;102409.06;5093155;28;20020;-68
2022/03/16 04:08:59;;;;;;;35.58;19.77;;;;;;;3.95;90.86;102402.34;5093236;28;20368;-68
2022/03/16 04:11:24;;;;;;;33.42;20.42;;;;;;;4.05;91.87;102405.88;5093142;28;20113;-68
2022/03/16 04:13:49;;;;;;;32.97;20.85;;;;;;;3.88;91.75;102397.72;5093207;28;20107;-68
2022/03/16 04:16:14;;;;;;;34.22;21.05;;;;;;;3.90;92.13;102396.72;5093012;28;20021;-69
2022/03/16 04:18:40;;;;;;;38.15;20.83;;;;;;;3.88;92.29;102395.16;5093127;28;20498;-66
2022/03/16 04:21:05;;;;;;;43.00;23.25;;;;;;;3.98;92.11;102407.25;5093222;28;20027;-67
2022/03/16 04:23:30;;;;;;;40.08;21.15;;;;;;;4.02;91.83;102397.59;5093079;28;20051;-67
2022/03/16 04:25:56;;;;;;;38.67;22.20;;;;;;;4.04;91.83;102401.72;5093099;28;20027;-67
2022/03/16 04:28:21;;;;;;;39.03;21.38;;;;;;;3.89;91.42;102395.06;5092982;28;20020;-67
2022/03/16 04:30:46;;;;;;;39.22;21.63;;;;;;;3.84;91.94;102387.69;5074801;28;20024;-67
2022/03/16 04:33:12;;;;;;;46.20;21.80;;;;;;;3.97;93.68;102397.94;5074993;28;20024;-67
2022/03/16 04:35:37;;;;;;;40.25;22.45;;;;;;;4.05;92.05;102392.28;5076786;28;20035;-67
2022/03/16 04:38:03;;;;;;;38.97;22.80;;;;;;;4.11;91.68;102404.66;5096643;28;20028;-67
2022/03/16 04:40:28;;;;;;;44.85;22.27;;;;;;;4.12;90.80;102402.94;5096826;28;20024;-67
2022/03/16 04:42:53;;;;;;;42.00;21.95;;;;;;;4.01;91.50;102401.91;5078335;28;20024;-67
2022/03/16 04:45:19;;;;;;;42.58;22.70;;;;;;;4.15;91.31;102397.59;5096467;28;20062;-67
2022/03/16 04:47:44;;;;;;;40.75;22.38;;;;;;;4.13;90.98;102409.69;5078365;28;20020;-67
2022/03/16 04:50:10;;;;;;;42.20;22.55;;;;;;;4.15;90.57;102405.28;5096293;28;20048;-67
2022/03/16 04:52:43;;;;;;;38.70;22.38;;;;;;;4.12;91.32;102400.38;5096532;28;20024;-67
2022/03/16 04:55:08;;;;;;;42.25;23.80;;;;;;;4.04;90.44;102403.44;5078212;28;20093;-67
2022/03/16 04:57:34;;;;;;;41.83;22.50;;;;;;;3.94;91.66;102404.97;5077994;28;20027;-69
2022/03/16 04:59:59;;;;;;;42.25;22.98;;;;;;;3.93;91.61;102398.25;5095996;28;20381;-66
2022/03/16 05:02:24;;;;;;;41.97;23.05;;;;;;;3.91;91.96;102400.88;5096101;28;20036;-68
2022/03/16 05:04:50;;;;;;;44.13;24.58;;;;;;;3.87;92.42;102394.34;5096122;28;20099;-66
2022/03/16 05:07:15;;;;;;;42.55;23.77;;;;;;;3.82;92.76;102392.09;5096106;28;20020;-66
2022/03/16 05:09:40;;;;;;;46.95;25.88;;;;;;;3.83;92.41;102395.50;5096227;28;20024;-66
2022/03/16 05:12:06;;;;;;;45.25;24.20;;;;;;;3.84;92.64;102395.38;5077844;28;20447;-66
2022/03/16 05:14:31;;;;;;;43.10;23.65;;;;;;;3.84;92.81;102395.38;5096196;28;20035;-66
2022/03/16 05:16:57;;;;;;;47.83;23.90;;;;;;;3.84;92.74;102392.00;5095923;28;20012;-67
2022/03/16 05:19:23;;;;;;;45.47;23.52;;;;;;;3.94;93.02;102392.19;5077690;28;20502;-66
2022/03/16 05:21:48;;;;;;;40.88;23.58;;;;;;;3.94;92.12;102389.63;5096003;28;20471;-67
2022/03/16 05:24:14;;;;;;;42.00;23.95;;;;;;;4.01;91.48;102394.25;5077764;28;20031;-66
2022/03/16 05:26:39;;;;;;;41.13;23.50;;;;;;;3.98;90.52;102394.44;5095522;28;20026;-66
2022/03/16 05:29:05;;;;;;;41.17;22.95;;;;;;;3.97;92.04;102395.38;5094768;28;20480;-66
2022/03/16 05:31:31;;;;;;;42.15;23.63;;;;;;;3.90;92.05;102391.59;5095723;28;20121;-66
2022/03/16 05:33:56;;;;;;;45.40;22.88;;;;;;;4.03;91.41;102391.59;5095757;28;20036;-67
2022/03/16 05:36:21;;;;;;;40.47;23.83;;;;;;;3.96;90.50;102408.25;5095676;28;20023;-66
2022/03/16 05:38:46;;;;;;;42.20;23.35;;;;;;;3.93;91.74;102411.03;5077347;28;20379;-66
2022/03/16 05:41:14;;;;;;;42.33;23.95;;;;;;;3.93;91.74;102411.84;5095449;28;20026;-66
2022/03/16 05:43:40;;;;;;;38.83;22.33;;;;;;;3.93;91.88;102408.47;5095239;28;20077;-65
2022/03/16 05:46:05;;;;;;;42.72;23.48;;;;;;;3.87;91.70;102407.16;5077093;28;20451;-65
2022/03/16 05:48:30;;;;;;;42.75;23.92;;;;;;;4.03;91.33;102407.75;5093913;28;20143;-66
2022/03/16 05:50:56;;;;;;;39.75;21.92;;;;;;;4.00;91.14;102413.09;5077119;28;20024;-66
2022/03/16 05:53:21;;;;;;;43.65;23.33;;;;;;;3.98;91.05;102419.22;5095193;28;20053;-66
2022/03/16 05:55:47;;;;;;;46.17;23.40;;;;;;;4.02;91.47;102416.34;5095253;28;20043;-66
2022/03/16 05:58:12;;;;;;;39.65;22.48;;;;;;;4.04;91.40;102414.50;5077064;28;20110;-66
2022/03/16 06:00:40;;;;;;;37.67;22.42;;;;;;;4.17;90.67;102418.78;5095327;28;20024;-66
2022/03/16 06:03:06;;;;;;;36.97;22.10;;;;;;;4.32;90.05;102424.59;5077107;28;20047;-65
2022/03/16 06:05:31;;;;;;;37.08;22.20;;;;;;;4.26;89.97;102421.53;5077047;28;20063;-66
2022/03/16 06:07:57;;;;;;;42.25;22.20;;;;;;;4.24;90.53;102422.56;5077221;28;20032;-67
2022/03/16 06:10:22;;;;;;;36.15;21.83;;;;;;;4.29;89.35;102428.19;5095786;28;20016;-71
2022/03/16 06:12:51;;;;;;;37.13;21.52;;;;;;;4.32;89.58;102422.03;5077199;28;20031;-71
2022/03/16 06:15:17;;;;;;;37.00;20.88;;;;;;;4.29;89.75;102429.00;5093510;28;20146;-72
2022/03/16 06:17:42;;;;;;;35.30;21.13;;;;;;;4.33;89.50;102426.22;5076532;28;20054;-72
2022/03/16 06:20:08;;;;;;;33.55;20.30;;;;;;;4.44;89.48;102416.06;5094888;28;20028;-72
2022/03/16 06:22:33;;;;;;;36.47;20.88;;;;;;;4.55;89.01;102430.69;5076357;28;20030;-71
2022/03/16 06:24:58;;;;;;;37.55;21.17;;;;;;;4.46;89.08;102434.69;5076373;28;20026;-72
2022/03/16 06:27:23;;;;;;;34.80;20.85;;;;;;;4.46;88.64;102430.41;5094520;28;20054;-72
2022/03/16 06:29:49;;;;;;;33.72;20.40;;;;;;;4.37;88.81;102402.03;5094310;28;20466;-73
2022/03/16 06:32:14;;;;;;;34.28;21.00;;;;;;;4.55;88.80;102425.56;5094480;28;20028;-72
2022/03/16 06:34:39;;;;;;;36.13;20.05;;;;;;;4.59;89.03;102424.41;5094320;28;20098;-75
2022/03/16 06:37:04;;;;;;;35.75;20.33;;;;;;;4.59;88.83;102421.88;5094304;28;20020;-72
2022/03/16 06:39:30;;;;;;;34.05;20.05;;;;;;;4.53;88.74;102413.69;5076255;28;20093;-72
2022/03/16 06:41:55;;;;;;;35.78;20.60;;;;;;;4.69;88.50;102415.16;5076470;28;20032;-72
2022/03/16 06:44:20;;;;;;;34.97;20.80;;;;;;;4.82;87.91;102417.69;5076415;28;20478;-68
2022/03/16 06:46:47;;;;;;;37.42;20.13;;;;;;;4.85;87.88;102415.72;5076493;28;20024;-67
2022/03/16 06:49:12;;;;;;;32.95;19.95;;;;;;;4.97;87.14;102406.31;5075754;28;20044;-68
2022/03/16 06:51:37;;;;;;;37.22;19.73;;;;;;;5.23;86.71;102411.31;5094100;28;20423;-69
2022/03/16 06:54:03;;;;;;;32.17;18.90;;;;;;;5.19;86.41;102406.41;5075872;28;20020;-68
2022/03/16 06:56:28;;;;;;;32.80;20.10;;;;;;;5.17;87.10;102415.13;5075848;28;20026;-69
2022/03/16 06:58:54;;;;;;;32.22;20.00;;;;;;;5.35;86.13;102397.59;5074989;28;20028;-68
2022/03/16 07:01:19;;;;;;;36.75;20.17;;;;;;;5.52;86.11;102409.16;5075626;28;20027;-68
2022/03/16 07:03:45;;;;;;;33.83;19.92;;;;;;;5.63;85.46;102415.13;5075763;28;20492;-69
2022/03/16 07:06:11;;;;;;;34.70;19.90;;;;;;;5.68;85.85;102424.25;5075903;28;20036;-68
2022/03/16 07:08:37;;;;;;;30.15;19.15;;;;;;;5.90;85.07;102419.16;5076137;28;20459;-73
2022/03/16 07:11:02;;;;;;;38.75;19.42;;;;;;;5.89;84.51;102415.75;5075504;28;20024;-73
2022/03/16 07:13:27;;;;;;;41.40;20.90;;;;;;;5.91;84.57;102423.34;5092236;28;20028;-71
2022/03/16 07:15:53;;;;;;;35.45;19.75;;;;;;;5.94;85.36;102418.00;5092135;28;20101;-72
2022/03/16 07:18:19;;;;;;;31.60;19.17;;;;;;;6.06;85.24;102426.53;5091787;28;20198;-73
2022/03/16 07:20:47;;;;;;;35.22;19.92;;;;;;;6.07;84.41;102412.75;5092418;28;20099;-72
2022/03/16 07:23:14;;;;;;;30.42;19.23;;;;;;;6.23;84.67;102415.78;5074783;28;20020;-73
2022/03/16 07:25:50;;;;;;;33.03;19.17;;;;;;;6.29;84.06;102411.91;5092517;28;20058;-73
2022/03/16 07:28:17;;;;;;;33.45;19.50;;;;;;;6.29;83.82;102405.03;5092601;28;20519;-73
2022/03/16 07:30:43;;;;;;;33.80;19.30;;;;;;;6.42;83.91;102410.03;5074519;28;20535;-73
2022/03/16 07:33:09;;;;;;;30.63;18.27;;;;;;;6.52;83.35;102402.41;5092547;28;20028;-71
2022/03/16 07:35:36;;;;;;;29.45;18.33;;;;;;;6.77;82.98;102406.44;5074893;28;20603;-71
2022/03/16 07:38:02;;;;;;;28.88;18.00;;;;;;;7.12;81.48;102398.47;5075637;28;20073;-67
2022/03/16 07:40:30;;;;;;;30.05;18.38;;;;;;;10.84;68.98;102392.06;5092468;28;20027;-68
2022/03/16 07:42:56;;;;;;;27.35;15.82;;;;;;;12.91;59.75;102391.78;5093599;28;20052;-67
2022/03/16 07:45:21;;;;;;;27.67;14.90;;;;;;;13.48;56.15;102391.72;5075737;28;20021;-72
2022/03/16 07:47:48;;;;;;;28.48;15.13;;;;;;;13.16;56.46;102389.97;5076273;28;20069;-72
2022/03/16 07:50:15;;;;;;;23.10;14.80;;;;;;;14.01;54.44;102386.78;5093280;28;20499;-75
2022/03/16 07:52:40;;;;;;;21.90;14.02;;;;;;;14.00;54.21;102370.41;5093539;28;20024;-73
2022/03/16 07:55:06;;;;;;;21.10;13.77;;;;;;;13.77;54.50;102379.94;5093642;28;20028;-74
2022/03/16 07:57:32;;;;;;;19.35;13.45;;;;;;;14.38;53.13;102367.09;5092387;28;20028;-75
2022/03/16 07:59:57;;;;;;;17.30;13.32;;;;;;;13.48;54.74;102368.34;5093539;28;20129;-72
2022/03/16 08:02:23;;;;;;;20.13;13.95;;;;;;;14.81;51.47;102360.44;5075378;28;20044;-73
2022/03/16 08:04:48;;;;;;;21.15;12.63;;;;;;;13.59;55.22;102353.38;5093170;28;20103;-74
2022/03/16 08:07:13;;;;;;;16.42;12.35;;;;;;;13.05;56.20;102359.97;5093184;28;20020;-74
2022/03/16 08:09:38;;;;;;;17.10;12.63;;;;;;;12.45;56.49;102362.91;5075653;28;20517;-73
2022/03/16 08:12:04;;;;;;;19.20;12.32;;;;;;;12.62;58.06;102353.34;5097064;28;20022;-74
2022/03/16 08:14:30;;;;;;;20.80;12.15;;;;;;;13.89;54.12;102347.38;5096734;28;20028;-75
2022/03/16 08:16:55;;;;;;;18.33;12.55;;;;;;;12.87;55.55;102346.38;5097178;28;20048;-73
2022/03/16 08:19:21;;;;;;;18.67;11.80;;;;;;;13.05;55.47;102339.22;5096791;28;20027;-72
2022/03/16 08:21:47;;;;;;;20.92;12.32;;;;;;;13.10;55.00;102338.72;5078771;28;20028;-73
2022/03/16 08:24:13;;;;;;;19.88;12.23;;;;;;;12.54;56.00;102354.16;5096814;28;20094;-73
2022/03/16 08:26:38;;;;;;;18.08;12.15;;;;;;;12.12;58.43;102349.09;5096747;28;20048;-73
2022/03/16 08:29:04;;;;;;;20.80;12.20;;;;;;;11.81;59.42;102341.03;5096989;28;20052;-72
2022/03/16 08:31:29;;;;;;;16.20;11.70;;;;;;;10.93;61.41;102344.59;5097021;28;20028;-73
2022/03/16 08:33:56;;;;;;;20.67;11.73;;;;;;;10.97;61.60;102340.75;5096948;28;20024;-72
2022/03/16 08:36:21;;;;;;;19.55;12.05;;;;;;;10.90;61.92;102333.75;5078038;28;20031;-73
2022/03/16 08:38:46;;;;;;;17.73;11.98;;;;;;;11.38;61.00;102332.44;5077628;28;20024;-72
2022/03/16 08:41:12;;;;;;;18.08;11.75;;;;;;;11.55;60.31;102323.78;5096025;28;20020;-73
2022/03/16 08:43:38;;;;;;;19.40;11.90;;;;;;;11.53;59.77;102323.13;5077948;28;20467;-73
2022/03/16 08:46:04;;;;;;;17.85;11.00;;;;;;;13.10;55.97;102323.97;5078522;28;20024;-74
2022/03/16 08:48:29;;;;;;;16.67;11.40;;;;;;;12.67;56.68;102317.38;5077484;28;20491;-74
2022/03/16 08:50:55;;;;;;;18.13;11.52;;;;;;;13.24;56.18;102319.06;5096578;28;20153;-75
2022/03/16 08:53:20;;;;;;;17.83;10.80;;;;;;;13.17;54.88;102321.50;5095108;28;20028;-75
2022/03/16 08:55:46;;;;;;;16.25;10.13;;;;;;;13.09;54.52;102318.94;5078799;28;20069;-74
2022/03/16 08:58:14;;;;;;;14.65;10.18;;;;;;;13.76;53.53;102310.78;5078470;28;20059;-74
2022/03/16 09:00:42;;;;;;;18.08;10.90;;;;;;;14.12;51.92;102311.03;5096463;28;20048;-75
2022/03/16 09:03:08;;;;;;;16.80;10.50;;;;;;;12.55;55.54;102318.69;5096427;28;20035;-75
2022/03/16 09:05:34;;;;;;;16.02;10.10;;;;;;;13.13;54.64;102309.03;5096039;28;20020;-75
2022/03/16 09:08:00;;;;;;;18.55;10.02;;;;;;;12.96;54.73;102314.25;5078460;28;20031;-75
2022/03/16 09:10:25;;;;;;;15.18;10.07;;;;;;;13.08;55.30;102322.50;5078149;28;20024;-74
2022/03/16 09:12:50;;;;;;;16.02;9.65;;;;;;;14.63;50.81;102326.94;5095934;28;20020;-74
2022/03/16 09:15:16;;;;;;;13.38;8.98;;;;;;;15.61;48.30;102325.06;5078575;28;20027;-74
2022/03/16 09:17:41;;;;;;;12.38;9.02;;;;;;;17.63;43.14;102327.25;5096791;28;20028;-75
2022/03/16 09:20:06;;;;;;;14.88;8.80;;;;;;;17.67;42.16;102323.28;5077769;28;20028;-75
2022/03/16 09:22:32;;;;;;;10.40;8.30;;;;;;;17.53;42.27;102330.25;5095558;28;20024;-74
2022/03/16 09:24:58;;;;;;;18.27;8.50;;;;;;;17.39;41.45;102320.75;5077446;28;20028;-74
2022/03/16 09:27:24;;;;;;;10.02;7.75;;;;;;;18.06;40.07;102319.94;5095624;28;20030;-74
2022/03/16 09:29:50;;;;;;;10.88;6.97;;;;;;;17.96;39.91;102325.56;5095870;28;20478;-75
2022/03/16 09:32:15;;;;;;;9.20;6.97;;;;;;;17.71;39.31;102321.84;5095520;28;20108;-75
2022/03/16 09:34:42;;;;;;;12.38;6.93;;;;;;;18.36;38.03;102320.38;5095260;28;20085;-74
2022/03/16 09:37:09;;;;;;;9.38;6.32;;;;;;;17.72;39.08;102333.91;5077183;28;20027;-75
2022/03/16 09:39:35;;;;;;;8.98;6.40;;;;;;;19.11;36.37;102333.22;5095353;28;20115;-75
2022/03/16 09:42:03;;;;;;;10.27;6.82;;;;;;;18.67;37.20;102309.31;5077427;28;20407;-74
2022/03/16 09:44:30;;;;;;;9.68;6.63;;;;;;;18.42;37.76;102337.09;5077302;28;20020;-74
2022/03/16 09:46:57;;;;;;;9.68;6.95;;;;;;;18.44;37.70;102328.03;5076983;28;20028;-74
2022/03/16 09:49:28;;;;;;;12.32;7.10;;;;;;;19.14;36.40;102322.31;5076151;28;20044;-76
2022/03/16 09:51:55;;;;;;;10.10;6.88;;;;;;;19.32;36.50;102311.97;5094647;28;20036;-77
2022/03/16 09:54:21;;;;;;;10.10;7.05;;;;;;;16.88;40.41;102332.31;5060274;28;20080;-73
2022/03/16 09:56:47;;;;;;;13.30;7.60;;;;;;;16.38;42.67;102314.06;5094925;28;20027;-76
2022/03/16 09:59:14;;;;;;;10.13;7.07;;;;;;;16.05;43.43;102324.16;5076643;28;20082;-76
2022/03/16 10:01:42;;;;;;;13.50;7.32;;;;;;;15.21;44.10;102314.16;5094891;28;20114;-74
2022/03/16 10:04:07;;;;;;;12.40;7.57;;;;;;;14.43;46.06;102316.16;5076856;28;20043;-75
2022/03/16 10:06:37;;;;;;;14.00;7.57;;;;;;;14.80;46.30;102313.78;5094723;28;20024;-76
2022/03/16 10:15:03;;;;;;;11.60;7.05;;;;;;;14.17;48.15;102300.91;5094372;28;20089;-75
2022/03/16 10:17:44;;;;;;;12.23;7.57;;;;;;;13.98;49.48;102298.78;5076998;28;20024;-76
2022/03/16 10:20:19;;;;;;;10.88;7.72;;;;;;;14.15;48.90;102302.06;5076417;28;20035;-75
2022/03/16 10:22:58;;;;;;;11.20;7.68;;;;;;;14.13;48.61;102304.88;5094744;28;20107;-76
2022/03/16 10:25:25;;;;;;;12.30;7.40;;;;;;;15.15;46.71;102295.84;5094594;28;20108;-74
2022/03/16 10:27:52;;;;;;;11.48;7.63;;;;;;;14.94;46.20;102299.16;5076189;28;20131;-75
2022/03/16 10:30:19;;;;;;;14.32;7.00;;;;;;;14.78;48.37;102310.53;5093190;28;20015;-75
2022/03/16 10:32:53;;;;;;;11.45;7.25;;;;;;;14.57;47.88;102291.22;5075484;28;20024;-76
2022/03/16 10:35:18;;;;;;;13.48;7.63;;;;;;;15.30;48.73;102292.22;5076464;28;20505;-75
2022/03/16 10:37:45;;;;;;;8.98;6.60;;;;;;;15.08;46.71;102290.56;5074400;28;20024;-74
2022/03/16 10:40:18;;;;;;;9.43;6.80;;;;;;;15.54;46.75;102292.94;5092923;28;20384;-74
2022/03/16 10:48:15;;;;;;;10.27;7.80;;;;;;;14.91;47.71;102276.09;5094065;28;20158;-74
2022/03/16 10:50:44;;;;;;;13.35;7.60;;;;;;;14.70;48.21;102281.97;5075802;28;20501;-75
2022/03/16 10:53:12;;;;;;;9.70;6.97;;;;;;;15.05;46.62;102270.09;5075809;28;20031;-73
2022/03/16 10:55:42;;;;;;;10.13;7.10;;;;;;;15.05;46.15;102275.28;5093411;28;20035;-74
2022/03/16 10:58:08;;;;;;;11.93;7.30;;;;;;;14.74;47.38;102273.66;5076210;28;20028;-74
2022/03/16 11:00:35;;;;;;;13.80;7.57;;;;;;;14.52;47.55;102292.72;5095194;28;20406;-76
2022/03/16 11:03:06;;;;;;;11.65;7.65;;;;;;;14.52;48.30;102277.13;5094437;28;20415;-74
2022/03/16 11:05:38;;;;;;;11.00;7.05;;;;;;;13.87;49.42;102276.59;5094168;28;20028;-75
2022/03/16 11:08:06;;;;;;;15.57;7.72;;;;;;;14.92;47.54;102275.09;5094048;28;20024;-74
2022/03/16 11:10:42;;;;;;;12.45;7.28;;;;;;;15.61;46.49;102248.69;5093708;28;20024;-75
2022/03/16 11:15:54;;;;;;;12.98;7.10;;;;;;;14.91;46.44;102252.69;5095076;28;20085;-77
2022/03/16 11:18:22;;;;;;;10.43;6.95;;;;;;;15.42;45.92;102250.91;5076468;28;20070;-76
2022/03/16 11:20:51;;;;;;;9.90;7.05;;;;;;;16.14;44.86;102239.63;5094475;28;20016;-75
2022/03/16 11:26:29;;;;;;;9.48;6.35;;;;;;;14.83;47.53;102237.94;5095127;28;20395;-76
2022/03/16 11:29:15;;;;;;;11.45;7.05;;;;;;;16.65;42.69;102233.34;5094103;28;20020;-75